Time;durP1;ratioP1;P1;durP2;ratioP2;P2;SDS_P1;SDS_P2;PMS_P1;PMS_P2;Temp;Humidity;BMP_temperature;BMP_pressure;BME280_temperature;BME280_humidity;BME280_pressure;Samples;Min_cycle;Max_cycle;Signal;HPM_P1;HPM_P2
2021/06/23 00:01:04;;;;;;;5.97;3.22;;;19.30;1.00;;;;;;5056380;28;20132;-73
2021/06/23 00:03:30;;;;;;;4.18;3.78;;;19.30;1.00;;;;;;5060330;28;20086;-72
2021/06/23 00:05:56;;;;;;;4.72;4.30;;;19.30;1.00;;;;;;5060967;28;20444;-72
2021/06/23 00:08:22;;;;;;;3.97;3.60;;;19.20;1.00;;;;;;5073396;28;20029;-73
2021/06/23 00:10:51;;;;;;;6.68;3.95;;;19.20;1.00;;;;;;5065894;28;20107;-72
2021/06/23 00:13:18;;;;;;;10.38;3.97;;;19.20;1.00;;;;;;5073568;28;20025;-72
2021/06/23 00:15:43;;;;;;;3.80;3.50;;;19.20;1.00;;;;;;5062307;28;20025;-74
2021/06/23 00:18:09;;;;;;;4.25;3.88;;;19.30;1.00;;;;;;5071375;28;20517;-74
2021/06/23 00:20:35;;;;;;;3.65;3.35;;;19.30;1.00;;;;;;5064372;28;20539;-74
2021/06/23 00:23:02;;;;;;;3.70;3.40;;;19.30;1.00;;;;;;5053926;28;20083;-73
2021/06/23 00:25:29;;;;;;;6.60;3.60;;;19.30;1.00;;;;;;5059146;28;20021;-73
2021/06/23 00:27:55;;;;;;;3.90;3.55;;;19.20;1.00;;;;;;5058808;28;20028;-72
2021/06/23 00:30:21;;;;;;;4.70;3.65;;;19.20;1.00;;;;;;5056328;28;20025;-72
2021/06/23 00:32:51;;;;;;;6.25;4.00;;;19.20;1.00;;;;;;5062658;28;20028;-73
2021/06/23 00:35:16;;;;;;;4.78;4.38;;;19.10;1.00;;;;;;5069013;28;20036;-73
2021/06/23 00:37:42;;;;;;;6.00;4.95;;;19.10;1.00;;;;;;5063005;28;20048;-73
2021/06/23 00:40:09;;;;;;;5.13;4.72;;;19.30;1.00;;;;;;5064679;28;20115;-74
2021/06/23 00:42:35;;;;;;;5.28;4.82;;;19.30;1.00;;;;;;5043981;28;20098;-72
2021/06/23 00:45:06;;;;;;;5.35;4.95;;;19.40;1.00;;;;;;5057990;28;20033;-73
2021/06/23 00:47:32;;;;;;;7.28;5.57;;;19.40;1.00;;;;;;5060716;28;20108;-72
2021/06/23 00:49:58;;;;;;;6.10;5.35;;;19.30;1.00;;;;;;5061397;28;20040;-72
2021/06/23 00:52:24;;;;;;;5.97;5.35;;;19.10;1.00;;;;;;5067202;28;20020;-73
2021/06/23 00:54:51;;;;;;;6.20;5.60;;;18.90;1.00;;;;;;5062649;28;20163;-71
2021/06/23 00:57:19;;;;;;;10.45;5.72;;;18.80;1.00;;;;;;5062686;28;20393;-73
2021/06/23 00:59:46;;;;;;;5.88;5.38;;;18.80;1.00;;;;;;5044101;28;20032;-73
2021/06/23 01:02:12;;;;;;;6.95;6.15;;;18.70;1.00;;;;;;5066016;28;20079;-73
2021/06/23 01:04:39;;;;;;;6.13;5.25;;;18.70;1.00;;;;;;5034693;28;20039;-73
2021/06/23 01:07:05;;;;;;;5.95;5.32;;;18.70;1.00;;;;;;5059299;28;20439;-73
2021/06/23 01:09:31;;;;;;;5.80;4.32;;;18.80;1.00;;;;;;5063606;28;20359;-73
2021/06/23 01:12:10;;;;;;;5.00;4.28;;;18.80;1.00;;;;;;5061935;28;20024;-73
2021/06/23 01:14:37;;;;;;;4.63;4.20;;;18.70;1.00;;;;;;5065077;28;20044;-72
2021/06/23 01:17:04;;;;;;;4.85;3.80;;;18.60;1.00;;;;;;5063043;28;20029;-73
2021/06/23 01:19:33;;;;;;;5.95;3.85;;;18.60;1.00;;;;;;5059553;28;20070;-73
2021/06/23 01:21:59;;;;;;;3.78;3.38;;;18.70;1.00;;;;;;5041963;28;20086;-74
2021/06/23 01:24:24;;;;;;;4.20;3.80;;;18.60;1.00;;;;;;5064026;28;20033;-74
2021/06/23 01:26:50;;;;;;;5.07;4.60;;;18.50;1.00;;;;;;5058003;28;20444;-72
2021/06/23 01:29:16;;;;;;;4.53;4.13;;;18.50;1.00;;;;;;5033987;28;20475;-73
2021/06/23 01:31:41;;;;;;;4.95;4.53;;;18.50;1.00;;;;;;5061710;28;20082;-73
2021/06/23 01:34:07;;;;;;;4.30;3.92;;;18.40;1.00;;;;;;5071788;28;20020;-73
2021/06/23 01:36:33;;;;;;;5.18;4.68;;;18.50;1.00;;;;;;5061173;28;20056;-73
2021/06/23 01:38:59;;;;;;;7.32;4.53;;;18.50;1.00;;;;;;5045276;28;20043;-73
2021/06/23 01:41:25;;;;;;;5.70;5.03;;;18.40;1.00;;;;;;5065597;28;20051;-72
2021/06/23 01:43:50;;;;;;;5.72;5.22;;;18.50;1.00;;;;;;5056352;28;20017;-72
2021/06/23 01:46:16;;;;;;;6.43;5.82;;;18.70;1.00;;;;;;5063388;28;20036;-73
2021/06/23 01:48:41;;;;;;;5.15;4.70;;;18.80;1.00;;;;;;5037830;28;20083;-73
2021/06/23 01:51:07;;;;;;;5.38;4.88;;;18.90;1.00;;;;;;5063037;28;20016;-72
2021/06/23 01:53:35;;;;;;;5.82;4.22;;;18.90;1.00;;;;;;5064075;28;20021;-73
2021/06/23 01:56:01;;;;;;;5.60;4.32;;;18.80;1.00;;;;;;5056128;28;20024;-72
2021/06/23 01:58:27;;;;;;;4.40;3.53;;;18.70;1.00;;;;;;5062809;28;20553;-73
2021/06/23 02:00:59;;;;;;;5.35;3.55;;;18.60;1.00;;;;;;5064935;28;20095;-73
2021/06/23 02:03:25;;;;;;;4.30;3.80;;;18.60;1.00;;;;;;5039260;28;20075;-73
2021/06/23 02:06:02;;;;;;;4.40;3.60;;;18.50;1.00;;;;;;5056853;28;20025;-72
2021/06/23 02:08:27;;;;;;;6.18;3.83;;;18.40;1.00;;;;;;5041310;28;20055;-72
2021/06/23 02:11:03;;;;;;;4.47;3.65;;;18.30;1.00;;;;;;5066470;28;20049;-73
2021/06/23 02:13:28;;;;;;;3.92;3.53;;;18.20;1.00;;;;;;5061492;28;20017;-72
2021/06/23 02:16:18;;;;;;;4.38;3.88;;;18.20;1.00;;;;;;5059854;28;20021;-72
2021/06/23 02:18:44;;;;;;;4.18;3.83;;;18.10;1.00;;;;;;5054321;28;20047;-72
2021/06/23 02:21:10;;;;;;;6.00;4.07;;;18.00;1.00;;;;;;5059533;28;20013;-73
2021/06/23 02:23:39;;;;;;;4.25;3.85;;;18.00;1.00;;;;;;5056847;28;20044;-73
2021/06/23 02:26:05;;;;;;;6.30;4.07;;;17.90;1.00;;;;;;5049548;28;20385;-73
2021/06/23 02:28:31;;;;;;;5.40;4.00;;;18.00;1.00;;;;;;5069721;28;20020;-73
2021/06/23 02:30:58;;;;;;;4.32;3.92;;;18.00;1.00;;;;;;5066751;28;20032;-73
2021/06/23 02:33:23;;;;;;;4.60;3.90;;;17.90;1.00;;;;;;5070305;28;20485;-73
2021/06/23 02:35:50;;;;;;;5.07;4.57;;;17.90;1.00;;;;;;5067654;28;20083;-73
2021/06/23 02:38:16;;;;;;;5.05;4.05;;;17.90;1.00;;;;;;5060975;28;20418;-72
2021/06/23 02:40:42;;;;;;;4.95;4.18;;;17.90;1.00;;;;;;5068210;28;20049;-73
2021/06/23 02:43:09;;;;;;;4.60;4.15;;;18.00;1.00;;;;;;5067279;28;20025;-72
2021/06/23 02:45:35;;;;;;;5.00;4.50;;;18.20;1.00;;;;;;5068367;28;20082;-72
2021/06/23 02:48:00;;;;;;;4.95;3.90;;;18.20;1.00;;;;;;5065415;28;20021;-72
2021/06/23 02:50:32;;;;;;;5.05;4.63;;;18.30;1.00;;;;;;5066590;28;20024;-72
2021/06/23 02:52:59;;;;;;;6.97;4.97;;;18.30;1.00;;;;;;5062670;28;20071;-74
2021/06/23 02:55:25;;;;;;;7.47;5.68;;;18.20;1.00;;;;;;5059116;28;20528;-73
2021/06/23 02:57:52;;;;;;;7.05;5.43;;;18.10;1.00;;;;;;5063727;28;20409;-73
2021/06/23 03:00:18;;;;;;;7.15;6.05;;;18.00;1.00;;;;;;5049716;28;20036;-74
2021/06/23 03:02:43;;;;;;;7.35;5.65;;;18.00;1.00;;;;;;5065395;28;20166;-73
2021/06/23 03:05:10;;;;;;;8.20;5.70;;;17.90;1.00;;;;;;5043430;28;20424;-74
2021/06/23 03:07:35;;;;;;;8.85;6.28;;;17.90;1.00;;;;;;5067375;28;20025;-73
2021/06/23 03:10:05;;;;;;;7.18;5.63;;;17.80;1.00;;;;;;5062132;28;20023;-74
2021/06/23 03:12:31;;;;;;;5.95;5.45;;;17.80;1.00;;;;;;5072194;28;20024;-73
2021/06/23 03:14:57;;;;;;;10.82;5.68;;;17.80;1.00;;;;;;5061542;28;20024;-73
2021/06/23 03:17:22;;;;;;;5.75;5.15;;;17.80;1.00;;;;;;5062219;28;20568;-74
2021/06/23 03:19:48;;;;;;;6.75;5.80;;;17.80;1.00;;;;;;5081975;28;20084;-73
2021/06/23 03:22:13;;;;;;;7.00;5.25;;;17.80;1.00;;;;;;5089003;28;20036;-72
2021/06/23 03:24:39;;;;;;;5.47;4.93;;;17.80;1.00;;;;;;5066914;28;20028;-73
2021/06/23 03:27:06;;;;;;;6.93;4.82;;;17.80;1.00;;;;;;5071212;28;20075;-72
2021/06/23 03:29:33;;;;;;;8.40;4.53;;;17.90;1.00;;;;;;5061643;28;20410;-74
2021/06/23 03:32:01;;;;;;;5.55;4.18;;;18.10;1.00;;;;;;5065586;28;20032;-72
2021/06/23 03:34:27;;;;;;;9.23;5.40;;;18.20;1.00;;;;;;5064871;28;20048;-73
2021/06/23 03:36:53;;;;;;;9.15;4.32;;;18.20;1.00;;;;;;5072714;28;20032;-73
2021/06/23 03:39:19;;;;;;;6.03;3.92;;;18.20;1.00;;;;;;5048573;28;20179;-76
2021/06/23 03:41:45;;;;;;;9.23;4.72;;;18.20;1.00;;;;;;5062581;28;20025;-73
2021/06/23 03:44:11;;;;;;;3.63;3.33;;;18.20;1.00;;;;;;5058791;28;20028;-73
2021/06/23 03:46:36;;;;;;;4.10;3.70;;;18.30;1.00;;;;;;5068332;28;20435;-73
2021/06/23 03:49:03;;;;;;;8.48;4.40;;;18.30;1.00;;;;;;5061102;28;20020;-73
2021/06/23 03:51:28;;;;;;;4.75;4.20;;;18.40;1.00;;;;;;5059741;28;20029;-73
2021/06/23 03:53:54;;;;;;;4.07;3.67;;;18.40;1.00;;;;;;5061422;28;20078;-72
2021/06/23 03:56:20;;;;;;;5.05;3.85;;;18.40;1.00;;;;;;5064474;28;20029;-73
2021/06/23 03:58:46;;;;;;;4.70;3.80;;;18.30;1.00;;;;;;5064228;28;20016;-71
2021/06/23 04:01:11;;;;;;;7.60;3.95;;;18.40;1.00;;;;;;5071972;28;20043;-73
2021/06/23 04:03:37;;;;;;;5.97;4.60;;;18.40;1.00;;;;;;5057387;28;20021;-74
2021/06/23 04:06:03;;;;;;;6.90;4.00;;;18.40;1.00;;;;;;5057902;28;20385;-74
2021/06/23 04:08:28;;;;;;;4.18;3.67;;;18.20;1.00;;;;;;5065449;28;20506;-74
2021/06/23 04:10:54;;;;;;;5.75;4.30;;;18.10;1.00;;;;;;5050207;28;20027;-73
2021/06/23 04:13:19;;;;;;;4.43;4.03;;;18.00;1.00;;;;;;5061556;28;20032;-74
2021/06/23 04:15:45;;;;;;;5.43;4.32;;;18.00;1.00;;;;;;5061994;28;20021;-72
2021/06/23 04:18:11;;;;;;;8.50;5.22;;;18.00;1.00;;;;;;5064170;28;20485;-73
2021/06/23 04:20:36;;;;;;;6.50;4.30;;;17.90;1.00;;;;;;5071233;28;20029;-72
2021/06/23 04:23:02;;;;;;;5.22;4.60;;;17.90;1.00;;;;;;5064084;28;20031;-72
2021/06/23 04:25:29;;;;;;;7.15;4.50;;;18.10;1.00;;;;;;5062503;28;20461;-72
2021/06/23 04:27:55;;;;;;;7.72;4.43;;;18.30;1.00;;;;;;5062312;28;20029;-73
2021/06/23 04:30:21;;;;;;;4.95;4.28;;;18.40;1.00;;;;;;5058029;28;20104;-74
2021/06/23 04:32:46;;;;;;;4.85;4.35;;;18.20;1.00;;;;;;5067469;28;20055;-73
2021/06/23 04:35:12;;;;;;;4.05;3.67;;;18.40;1.00;;;;;;5057530;28;20029;-74
2021/06/23 04:37:41;;;;;;;5.20;3.83;;;18.40;1.00;;;;;;5067946;28;20504;-74
2021/06/23 04:40:11;;;;;;;5.70;3.10;;;18.60;1.00;;;;;;5043922;28;20055;-72
2021/06/23 04:42:37;;;;;;;2.78;2.58;;;18.80;1.00;;;;;;5055819;28;20032;-75
2021/06/23 04:45:05;;;;;;;3.75;2.28;;;18.80;1.00;;;;;;5054514;28;20339;-73
2021/06/23 04:47:31;;;;;;;3.35;2.40;;;18.90;1.00;;;;;;5047977;28;20035;-74
2021/06/23 04:49:57;;;;;;;2.70;2.40;;;18.90;1.00;;;;;;5061206;28;20037;-73
2021/06/23 04:52:22;;;;;;;2.58;2.38;;;18.90;1.00;;;;;;5054234;28;20086;-74
2021/06/23 04:54:49;;;;;;;2.70;2.08;;;19.10;1.00;;;;;;5054068;28;20029;-73
2021/06/23 04:57:15;;;;;;;4.95;2.28;;;19.70;1.00;;;;;;5067194;28;20032;-74
2021/06/23 04:59:40;;;;;;;2.55;2.03;;;20.40;99.90;;;;;;5044676;28;20029;-74
2021/06/23 05:02:06;;;;;;;3.67;1.98;;;21.20;99.90;;;;;;5056496;28;20157;-73
2021/06/23 05:04:33;;;;;;;2.75;1.70;;;22.10;99.90;;;;;;5064273;28;20481;-72
2021/06/23 05:07:02;;;;;;;3.78;1.55;;;22.70;99.90;;;;;;5059540;28;20032;-73
2021/06/23 05:09:28;;;;;;;2.78;1.52;;;24.00;1.00;;;;;;5063482;28;20048;-74
2021/06/23 05:11:53;;;;;;;2.05;1.45;;;24.10;99.90;;;;;;5068913;28;20516;-75
2021/06/23 05:14:19;;;;;;;2.35;1.40;;;24.30;1.00;;;;;;5060815;28;20028;-74
2021/06/23 05:16:49;;;;;;;4.15;1.58;;;25.20;99.90;;;;;;5060940;28;20053;-74
2021/06/23 05:19:15;;;;;;;2.97;1.40;;;25.00;99.90;;;;;;5063667;28;20481;-74
2021/06/23 05:21:40;;;;;;;3.60;1.30;;;26.20;1.00;;;;;;5054537;28;20033;-74
2021/06/23 05:24:06;;;;;;;2.30;1.40;;;25.20;99.90;;;;;;5055962;28;20468;-74
2021/06/23 05:26:32;;;;;;;2.13;1.40;;;24.70;1.00;;;;;;5059081;28;20108;-74
2021/06/23 05:28:58;;;;;;;2.83;1.83;;;24.70;1.00;;;;;;5049679;28;20107;-74
2021/06/23 05:31:23;;;;;;;3.92;1.25;;;25.20;99.90;;;;;;5063683;28;20566;-73
2021/06/23 05:33:49;;;;;;;3.20;1.38;;;26.50;99.90;;;;;;5061178;28;20108;-73
2021/06/23 05:36:15;;;;;;;3.25;1.35;;;26.00;99.90;;;;;;5058979;28;20489;-73
2021/06/23 05:38:40;;;;;;;1.95;1.23;;;26.50;1.00;;;;;;5055170;28;20056;-73
2021/06/23 05:41:06;;;;;;;1.92;1.25;;;25.90;99.90;;;;;;5063692;28;20512;-75
2021/06/23 05:43:31;;;;;;;3.42;2.30;;;26.50;37.70;;;;;;5066561;28;20044;-73
2021/06/23 05:45:57;;;;;;;3.90;1.33;;;26.40;1.00;;;;;;5063495;28;20055;-74
2021/06/23 05:48:23;;;;;;;2.58;1.35;;;25.30;1.00;;;;;;5060475;28;20029;-74
2021/06/23 05:50:48;;;;;;;1.05;0.95;;;25.40;78.30;;;;;;5043851;28;20567;-73
2021/06/23 05:53:14;;;;;;;2.80;1.25;;;26.30;99.90;;;;;;5063546;28;20466;-75
2021/06/23 05:55:41;;;;;;;3.22;1.10;;;26.40;99.90;;;;;;5063249;28;20044;-74
2021/06/23 05:58:07;;;;;;;2.95;1.33;;;25.60;99.90;;;;;;5045320;28;20108;-74
2021/06/23 06:00:35;;;;;;;1.88;1.67;;;25.80;99.90;;;;;;5063360;28;20029;-74
2021/06/23 06:03:00;;;;;;;5.13;1.90;;;26.70;99.90;;;;;;5049074;28;20242;-74
2021/06/23 06:05:26;;;;;;;4.32;1.70;;;27.00;99.90;;;;;;5064726;28;20103;-73
2021/06/23 06:07:52;;;;;;;2.88;1.85;;;27.50;1.00;;;;;;5067097;28;20051;-73
2021/06/23 06:10:17;;;;;;;2.38;1.90;;;27.10;1.00;;;;;;5061254;28;20119;-73
2021/06/23 06:12:43;;;;;;;5.53;1.52;;;27.30;99.90;;;;;;5063421;28;20108;-73
2021/06/23 06:15:09;;;;;;;3.17;1.52;;;26.60;1.00;;;;;;5059570;28;20027;-74
2021/06/23 06:17:35;;;;;;;4.47;1.20;;;25.20;1.00;;;;;;5068335;28;20034;-74
2021/06/23 06:20:02;;;;;;;5.82;2.15;;;25.00;99.90;;;;;;5059105;28;20420;-75
2021/06/23 06:22:28;;;;;;;3.88;1.65;;;25.20;99.90;;;;;;5067028;28;20037;-73
2021/06/23 06:24:54;;;;;;;4.03;1.60;;;25.10;99.90;;;;;;5059730;28;20398;-74
2021/06/23 06:27:20;;;;;;;3.92;1.75;;;24.90;99.90;;;;;;5068188;28;20021;-76
2021/06/23 06:29:45;;;;;;;4.30;1.60;;;24.50;99.90;;;;;;5070805;28;20029;-75
2021/06/23 06:32:11;;;;;;;5.00;1.75;;;24.10;1.00;;;;;;5073741;28;20036;-75
2021/06/23 06:34:36;;;;;;;4.93;1.48;;;24.00;1.00;;;;;;5075248;28;20017;-73
2021/06/23 06:37:02;;;;;;;3.42;1.30;;;23.70;99.90;;;;;;5073287;28;20033;-74
2021/06/23 06:39:28;;;;;;;5.18;1.40;;;24.10;1.00;;;;;;5056141;28;20028;-74
2021/06/23 06:41:53;;;;;;;4.22;1.73;;;23.30;99.90;;;;;;5055060;28;20458;-75
2021/06/23 06:44:21;;;;;;;2.10;1.17;;;22.80;99.90;;;;;;5060420;28;20086;-75
2021/06/23 06:46:46;;;;;;;2.63;1.10;;;22.60;99.90;;;;;;5064889;28;20033;-75
2021/06/23 06:49:12;;;;;;;2.08;1.40;;;22.50;99.90;;;;;;5063571;28;20089;-74
2021/06/23 06:51:37;;;;;;;6.60;1.35;;;22.70;99.90;;;;;;5068299;28;20056;-74
2021/06/23 06:54:03;;;;;;;2.92;1.55;;;23.30;1.00;;;;;;5062630;28;20024;-73
2021/06/23 06:56:29;;;;;;;4.47;1.40;;;23.60;1.00;;;;;;5054694;28;20023;-73
2021/06/23 06:58:54;;;;;;;2.10;1.42;;;23.50;99.90;;;;;;5055995;28;20029;-74
2021/06/23 07:01:20;;;;;;;2.10;1.60;;;23.40;99.90;;;;;;5060006;28;20033;-73
2021/06/23 07:03:45;;;;;;;3.03;1.90;;;23.20;1.00;;;;;;5065027;28;20029;-73
2021/06/23 07:06:11;;;;;;;5.03;1.70;;;23.00;99.90;;;;;;5072402;28;20032;-71
2021/06/23 07:08:37;;;;;;;4.32;1.90;;;22.90;99.90;;;;;;5065407;28;20025;-73
2021/06/23 07:11:02;;;;;;;4.38;1.50;;;22.80;99.90;;;;;;5066212;28;20116;-72
2021/06/23 07:13:28;;;;;;;2.22;1.30;;;23.00;99.90;;;;;;5069202;28;20029;-74
2021/06/23 07:15:53;;;;;;;4.80;1.58;;;23.10;99.90;;;;;;5067853;28;20032;-74
2021/06/23 07:18:19;;;;;;;3.15;2.03;;;23.20;99.90;;;;;;5067174;28;20123;-72
2021/06/23 07:20:45;;;;;;;2.40;1.30;;;23.20;99.90;;;;;;5044408;28;20506;-74
2021/06/23 07:23:10;;;;;;;4.05;1.50;;;23.30;99.90;;;;;;5058172;28;20074;-73
2021/06/23 07:25:36;;;;;;;3.33;2.15;;;23.40;99.90;;;;;;5065504;28;20121;-72
2021/06/23 07:28:02;;;;;;;2.75;1.25;;;23.40;77.60;;;;;;5042523;28;20486;-73
2021/06/23 07:30:28;;;;;;;9.93;1.90;;;23.50;36.20;;;;;;5060807;28;20053;-72
2021/06/23 07:32:57;;;;;;;5.35;1.85;;;23.70;1.00;;;;;;5045401;28;20024;-73
2021/06/23 07:38:08;;;;;;;5.55;2.42;;;23.90;99.90;;;;;;5068015;28;20062;-75
2021/06/23 07:43:13;;;;;;;3.58;1.42;;;23.70;99.90;;;;;;5060160;28;20091;-73
2021/06/23 07:45:46;;;;;;;2.20;1.20;;;23.70;99.90;;;;;;5064145;28;20032;-73
2021/06/23 07:48:11;;;;;;;1.33;1.10;;;23.70;99.90;;;;;;5062444;28;20033;-74
2021/06/23 07:50:47;;;;;;;2.13;1.20;;;23.50;99.90;;;;;;5048102;28;20029;-73
2021/06/23 07:53:23;;;;;;;3.00;0.90;;;23.70;99.90;;;;;;5070735;28;20063;-74
2021/06/23 07:55:51;;;;;;;4.40;1.42;;;23.70;1.00;;;;;;5055016;28;20025;-74
2021/06/23 08:12:06;;;;;;;1.85;1.38;;;24.90;99.90;;;;;;5068442;28;20086;-73
2021/06/23 08:14:35;;;;;;;2.88;2.00;;;25.00;99.90;;;;;;5056097;28;20357;-74
2021/06/23 08:17:00;;;;;;;2.92;1.67;;;24.60;99.90;;;;;;5050201;28;20025;-73
2021/06/23 08:19:26;;;;;;;1.80;1.70;;;25.00;99.90;;;;;;5053341;28;20024;-72
2021/06/23 08:21:52;;;;;;;1.88;1.50;;;25.10;1.00;;;;;;5057968;28;20037;-73
2021/06/23 08:24:17;;;;;;;2.08;1.50;;;25.30;1.00;;;;;;5067162;28;20025;-73
2021/06/23 08:26:43;;;;;;;1.45;1.35;;;25.70;99.90;;;;;;5067768;28;20028;-72
2021/06/23 08:29:08;;;;;;;1.90;1.73;;;25.70;99.90;;;;;;5063640;28;20032;-71
2021/06/23 08:31:34;;;;;;;4.15;1.63;;;25.30;99.90;;;;;;5047607;28;20074;-72
2021/06/23 08:33:59;;;;;;;3.65;1.35;;;25.00;99.90;;;;;;5073801;28;20016;-74
2021/06/23 08:36:25;;;;;;;3.58;1.40;;;25.00;99.90;;;;;;5066222;28;20018;-74
2021/06/23 08:38:52;;;;;;;2.25;1.27;;;25.50;99.90;;;;;;5065314;28;20102;-75
2021/06/23 08:41:29;;;;;;;2.47;1.25;;;25.70;99.90;;;;;;5047574;28;20035;-71
2021/06/23 08:43:56;;;;;;;2.47;2.03;;;25.90;99.90;;;;;;5062291;28;20385;-74
2021/06/23 08:46:22;;;;;;;5.70;1.60;;;26.20;1.00;;;;;;5047888;28;20029;-73
2021/06/23 08:48:48;;;;;;;2.10;1.20;;;26.30;1.00;;;;;;5068331;28;20449;-74
2021/06/23 08:51:14;;;;;;;2.38;1.20;;;26.30;1.00;;;;;;5068177;28;20028;-73
2021/06/23 08:53:40;;;;;;;5.22;1.58;;;26.40;1.00;;;;;;5071217;28;20013;-74
2021/06/23 08:56:07;;;;;;;1.25;1.05;;;26.20;1.00;;;;;;5066351;28;20019;-74
2021/06/23 08:58:33;;;;;;;2.28;2.08;;;26.70;1.00;;;;;;5063589;28;20044;-73
2021/06/23 09:00:59;;;;;;;1.25;1.15;;;27.00;1.00;;;;;;5052684;28;20513;-76
2021/06/23 09:03:25;;;;;;;1.23;0.93;;;27.10;78.20;;;;;;5047228;28;20032;-74
2021/06/23 09:05:56;;;;;;;2.30;1.20;;;27.10;35.80;;;;;;5073403;28;20425;-76
2021/06/23 09:08:37;;;;;;;6.20;1.00;;;27.20;65.30;;;;;;5048305;28;20045;-74
2021/06/23 09:11:17;;;;;;;1.73;1.10;;;27.00;55.30;;;;;;5037054;28;20032;-73
2021/06/23 09:13:43;;;;;;;1.30;0.60;;;27.00;89.00;;;;;;5041819;28;20044;-75
2021/06/23 09:16:09;;;;;;;1.38;0.70;;;26.70;91.70;;;;;;5045038;28;20467;-75
2021/06/23 09:18:41;;;;;;;2.15;0.82;;;26.90;92.00;;;;;;5055249;28;20048;-73
2021/06/23 09:21:16;;;;;;;1.02;0.60;;;26.60;93.20;;;;;;5046126;28;20021;-74
2021/06/23 09:23:43;;;;;;;1.95;0.68;;;26.70;93.10;;;;;;5036978;28;20032;-75
2021/06/23 09:26:10;;;;;;;0.80;0.70;;;27.30;93.10;;;;;;5030393;28;20033;-73
2021/06/23 09:28:35;;;;;;;1.50;0.90;;;27.40;92.90;;;;;;5045162;28;20048;-75
2021/06/23 09:31:01;;;;;;;0.95;0.70;;;27.30;92.40;;;;;;5046778;28;20029;-75
2021/06/23 09:33:27;;;;;;;0.68;0.60;;;27.20;92.70;;;;;;5053419;28;20025;-75
2021/06/23 09:35:55;;;;;;;0.60;0.52;;;27.10;92.50;;;;;;5046727;28;20017;-73
2021/06/23 09:38:47;;;;;;;2.78;1.30;;;26.60;92.90;;;;;;5059952;28;20032;-74
2021/06/23 09:41:34;;;;;;;4.43;1.70;;;26.30;93.90;;;;;;5050205;28;20443;-72
2021/06/23 09:44:02;;;;;;;1.10;0.93;;;26.50;97.00;;;;;;5044770;28;20033;-73
2021/06/23 09:46:30;;;;;;;2.35;0.80;;;26.60;97.50;;;;;;5057488;28;20043;-75
2021/06/23 09:49:17;;;;;;;2.35;0.80;;;26.80;95.10;;;;;;5047550;28;20071;-75
2021/06/23 09:51:46;;;;;;;1.52;0.70;;;27.60;93.60;;;;;;5046364;28;20028;-73
2021/06/23 09:54:13;;;;;;;0.77;0.65;;;27.10;93.50;;;;;;5021180;28;20029;-74
2021/06/23 09:56:46;;;;;;;1.40;0.60;;;26.70;92.60;;;;;;5048272;28;20497;-75
2021/06/23 09:59:49;;;;;;;0.95;0.50;;;27.30;91.70;;;;;;5043968;28;20048;-74
2021/06/23 10:02:30;;;;;;;1.15;0.70;;;27.20;92.00;;;;;;5005516;28;20035;-74
2021/06/23 10:05:02;;;;;;;0.80;0.70;;;27.10;92.10;;;;;;5043717;28;20028;-74
2021/06/23 10:07:38;;;;;;;4.32;0.60;;;27.60;92.20;;;;;;5051191;28;20032;-75
2021/06/23 10:10:04;;;;;;;1.13;0.50;;;27.80;90.70;;;;;;5044792;28;20028;-74
2021/06/23 10:12:30;;;;;;;0.75;0.50;;;26.70;91.80;;;;;;5047573;28;20100;-76
2021/06/23 10:14:56;;;;;;;0.77;0.77;;;26.80;91.70;;;;;;5047918;28;20017;-75
2021/06/23 10:17:22;;;;;;;0.60;0.55;;;27.50;91.50;;;;;;5051234;28;20025;-74
2021/06/23 10:19:49;;;;;;;4.97;0.70;;;28.20;90.90;;;;;;5049624;28;20040;-74
2021/06/23 10:22:16;;;;;;;0.98;0.50;;;28.10;90.10;;;;;;5040610;28;20557;-75
2021/06/23 10:24:44;;;;;;;3.65;0.60;;;28.40;89.20;;;;;;5053314;28;20082;-74
2021/06/23 10:27:11;;;;;;;1.20;0.60;;;28.10;90.60;;;;;;5047704;28;20182;-74
2021/06/23 10:29:40;;;;;;;0.60;0.60;;;27.40;90.30;;;;;;5040644;28;20013;-73
2021/06/23 10:32:07;;;;;;;1.27;0.70;;;27.40;90.50;;;;;;5043726;28;20162;-74
2021/06/23 10:34:33;;;;;;;0.90;0.57;;;26.90;90.90;;;;;;5048602;28;20025;-75
2021/06/23 10:37:00;;;;;;;0.38;0.38;;;26.90;91.10;;;;;;5041435;28;20383;-74
2021/06/23 10:39:33;;;;;;;0.70;0.50;;;26.50;91.30;;;;;;5048076;28;20384;-75
2021/06/23 10:42:03;;;;;;;1.02;0.70;;;26.10;92.00;;;;;;5039878;28;20080;-75
2021/06/23 10:44:40;;;;;;;0.57;0.50;;;25.90;92.60;;;;;;5036109;28;20052;-74
2021/06/23 10:47:08;;;;;;;4.68;0.68;;;26.10;92.00;;;;;;5050489;28;20066;-74
2021/06/23 10:49:40;;;;;;;3.60;0.88;;;26.30;92.40;;;;;;5040775;28;20040;-74
2021/06/23 10:52:36;;;;;;;2.25;0.73;;;26.30;92.70;;;;;;5047610;28;20479;-75
2021/06/23 10:55:08;;;;;;;1.95;0.40;;;26.80;91.20;;;;;;5019277;28;20046;-73
2021/06/23 10:57:44;;;;;;;0.80;0.60;;;26.70;91.60;;;;;;5036988;28;20437;-77
2021/06/23 11:00:24;;;;;;;1.50;0.63;;;26.90;91.50;;;;;;5044428;28;20029;-79
2021/06/23 11:03:09;;;;;;;3.03;0.60;;;26.70;91.70;;;;;;5059424;28;20029;-74
2021/06/23 11:05:40;;;;;;;0.80;0.60;;;26.20;92.20;;;;;;5066546;28;20021;-76
2021/06/23 11:08:35;;;;;;;;;;;26.40;91.80;;;;;;5065382;28;20021;-75
2021/06/23 11:11:06;;;;;;;2.28;0.40;;;26.90;91.20;;;;;;5023566;28;20023;-76
2021/06/23 11:13:37;;;;;;;0.65;0.40;;;27.00;90.90;;;;;;5051226;28;20021;-73
2021/06/23 11:16:04;;;;;;;1.05;0.50;;;27.50;90.50;;;;;;5043165;28;20021;-75
2021/06/23 11:18:32;;;;;;;0.90;0.30;;;27.90;88.50;;;;;;5048770;28;20047;-74
2021/06/23 11:21:01;;;;;;;1.20;0.57;;;28.10;89.40;;;;;;5046782;28;20021;-73
2021/06/23 11:23:57;;;;;;;0.77;0.60;;;28.20;88.00;;;;;;5047774;28;20025;-76
2021/06/23 11:26:22;;;;;;;0.68;0.40;;;27.50;89.00;;;;;;5035481;28;20044;-74
2021/06/23 11:28:52;;;;;;;0.40;0.40;;;28.10;87.40;;;;;;5050258;28;20366;-74
2021/06/23 11:31:20;;;;;;;2.17;0.60;;;27.80;88.20;;;;;;5059087;28;20021;-74
2021/06/23 11:33:59;;;;;;;0.60;0.40;;;27.90;88.00;;;;;;5037739;28;20033;-75
2021/06/23 11:36:25;;;;;;;1.85;0.50;;;27.70;90.00;;;;;;5054675;28;20580;-75
2021/06/23 11:38:53;;;;;;;0.52;0.40;;;28.00;87.90;;;;;;5054386;28;20482;-74
2021/06/23 11:41:19;;;;;;;1.58;0.40;;;28.00;86.40;;;;;;5036265;28;20095;-74
2021/06/23 11:43:45;;;;;;;0.77;0.40;;;27.10;86.10;;;;;;5034859;28;20033;-73
2021/06/23 11:46:11;;;;;;;0.40;0.40;;;26.60;89.10;;;;;;5034901;28;20025;-73
2021/06/23 11:48:38;;;;;;;0.35;0.35;;;27.00;87.70;;;;;;5034723;28;20067;-76
2021/06/23 11:51:04;;;;;;;1.00;0.30;;;27.50;86.80;;;;;;5017163;28;20033;-75
2021/06/23 11:53:31;;;;;;;0.75;0.40;;;28.00;87.40;;;;;;5041231;28;20060;-71
2021/06/23 11:55:56;;;;;;;0.60;0.30;;;28.10;86.70;;;;;;5034439;28;20025;-72
2021/06/23 11:58:22;;;;;;;0.40;0.32;;;28.10;82.00;;;;;;5039724;28;20036;-72
2021/06/23 12:00:48;;;;;;;0.20;0.20;;;28.00;81.00;;;;;;5052858;28;20397;-73
2021/06/23 12:03:16;;;;;;;0.43;0.30;;;28.10;81.80;;;;;;5045700;28;20025;-72
2021/06/23 12:05:42;;;;;;;1.67;0.40;;;27.50;82.90;;;;;;5037633;28;20029;-72
2021/06/23 12:08:08;;;;;;;0.40;0.30;;;28.10;81.10;;;;;;5043211;28;20596;-75
2021/06/23 12:10:35;;;;;;;0.93;0.30;;;28.40;80.00;;;;;;5042422;28;20029;-73
2021/06/23 12:13:01;;;;;;;4.22;0.50;;;28.60;82.10;;;;;;5051958;28;20078;-74
2021/06/23 12:15:29;;;;;;;1.75;0.30;;;28.80;80.90;;;;;;5049525;28;20494;-75
2021/06/23 12:17:57;;;;;;;3.80;0.50;;;28.70;80.50;;;;;;5046612;28;20038;-72
2021/06/23 12:20:23;;;;;;;1.13;0.57;;;28.70;81.40;;;;;;5039972;28;20119;-74
2021/06/23 12:22:56;;;;;;;0.68;0.35;;;29.00;80.30;;;;;;5035359;28;20029;-74
2021/06/23 12:25:24;;;;;;;0.85;0.40;;;29.20;79.30;;;;;;5045709;28;20466;-73
2021/06/23 12:27:51;;;;;;;0.50;0.30;;;29.10;76.50;;;;;;5045982;28;20088;-73
2021/06/23 12:30:18;;;;;;;2.90;0.43;;;29.70;75.20;;;;;;5037134;28;20022;-72
2021/06/23 12:32:43;;;;;;;2.38;0.50;;;29.50;76.20;;;;;;5036500;28;20033;-74
2021/06/23 12:35:10;;;;;;;0.65;0.28;;;29.50;76.60;;;;;;5053439;28;20390;-73
2021/06/23 12:37:36;;;;;;;2.90;0.60;;;29.70;75.40;;;;;;5044671;28;20108;-73
2021/06/23 12:40:01;;;;;;;1.83;0.98;;;29.70;77.00;;;;;;5035206;28;20473;-73
2021/06/23 12:42:27;;;;;;;1.17;0.57;;;29.80;76.80;;;;;;5047647;28;20029;-72
2021/06/23 12:44:52;;;;;;;2.65;0.40;;;29.60;76.30;;;;;;5047053;28;20489;-73
2021/06/23 12:47:18;;;;;;;6.03;0.70;;;29.80;76.60;;;;;;5046283;28;20489;-71
2021/06/23 12:49:43;;;;;;;1.95;0.50;;;29.70;77.60;;;;;;5057002;28;20040;-71
2021/06/23 12:52:09;;;;;;;0.60;0.50;;;30.00;77.00;;;;;;5046293;28;20022;-73
2021/06/23 12:54:34;;;;;;;1.95;0.50;;;29.40;76.50;;;;;;5054634;28;20470;-72
2021/06/23 12:57:00;;;;;;;0.63;0.50;;;29.70;77.40;;;;;;5041326;28;20028;-75
2021/06/23 12:59:30;;;;;;;0.43;0.43;;;30.00;76.30;;;;;;5031596;28;20362;-71
2021/06/23 13:01:59;;;;;;;0.80;0.40;;;29.50;76.20;;;;;;5047458;28;20563;-72
2021/06/23 13:04:25;;;;;;;0.30;0.30;;;29.20;77.70;;;;;;5022395;28;20029;-73
2021/06/23 13:06:52;;;;;;;3.65;0.85;;;29.30;77.70;;;;;;5040523;28;20482;-72
2021/06/23 13:09:17;;;;;;;0.40;0.40;;;29.10;78.50;;;;;;5044480;28;20029;-74
2021/06/23 13:11:43;;;;;;;0.40;0.40;;;28.70;78.00;;;;;;5036047;28;20038;-74
2021/06/23 13:14:09;;;;;;;0.47;0.35;;;28.50;77.80;;;;;;5051970;28;20029;-73